sensor_id;sensor_type;location;lat;lon;timestamp;pressure;altitude;pressure_sealevel;temperature;humidity
18985;BME280;9626;52.552;13.436;2023-02-17T00:02:09;101322.31;;;7.35;100.00
18985;BME280;9626;52.552;13.436;2023-02-17T00:04:35;101324.84;;;7.20;100.00
18985;BME280;9626;52.552;13.436;2023-02-17T00:07:00;101313.41;;;7.11;100.00
18985;BME280;9626;52.552;13.436;2023-02-17T00:09:26;101315.97;;;6.99;100.00
18985;BME280;9626;52.552;13.436;2023-02-17T00:11:52;101309.72;;;6.80;100.00
18985;BME280;9626;52.552;13.436;2023-02-17T00:14:18;101296.50;;;6.63;100.00
18985;BME280;9626;52.552;13.436;2023-02-17T00:16:44;101298.19;;;6.55;100.00
18985;BME280;9626;52.552;13.436;2023-02-17T00:19:11;101298.19;;;6.52;100.00
18985;BME280;9626;52.552;13.436;2023-02-17T00:21:53;101301.66;;;6.48;100.00
18985;BME280;9626;52.552;13.436;2023-02-17T00:24:21;101288.50;;;6.48;100.00
18985;BME280;9626;52.552;13.436;2023-02-17T00:26:48;101278.84;;;6.50;100.00
18985;BME280;9626;52.552;13.436;2023-02-17T00:29:14;101283.25;;;6.49;100.00
18985;BME280;9626;52.552;13.436;2023-02-17T00:31:43;101285.91;;;6.54;100.00
18985;BME280;9626;52.552;13.436;2023-02-17T00:34:09;101277.16;;;6.58;100.00
18985;BME280;9626;52.552;13.436;2023-02-17T00:36:36;101276.25;;;6.54;100.00
18985;BME280;9626;52.552;13.436;2023-02-17T00:39:03;101286.75;;;6.54;100.00
18985;BME280;9626;52.552;13.436;2023-02-17T00:41:29;101282.41;;;6.56;100.00
18985;BME280;9626;52.552;13.436;2023-02-17T00:43:55;101276.28;;;6.56;100.00
18985;BME280;9626;52.552;13.436;2023-02-17T00:46:22;101273.66;;;6.56;100.00
18985;BME280;9626;52.552;13.436;2023-02-17T00:48:48;101278.91;;;6.59;100.00
18985;BME280;9626;52.552;13.436;2023-02-17T00:51:15;101278.00;;;6.55;100.00
18985;BME280;9626;52.552;13.436;2023-02-17T00:53:41;101267.47;;;6.54;100.00
18985;BME280;9626;52.552;13.436;2023-02-17T00:56:07;101260.44;;;6.54;100.00
18985;BME280;9626;52.552;13.436;2023-02-17T00:58:34;101258.72;;;6.56;100.00
18985;BME280;9626;52.552;13.436;2023-02-17T01:01:01;101256.97;;;6.58;100.00
18985;BME280;9626;52.552;13.436;2023-02-17T01:03:28;101246.44;;;6.58;100.00
18985;BME280;9626;52.552;13.436;2023-02-17T01:05:55;101238.53;;;6.54;100.00
18985;BME280;9626;52.552;13.436;2023-02-17T01:08:22;101228.91;;;6.56;100.00
18985;BME280;9626;52.552;13.436;2023-02-17T01:10:49;101236.81;;;6.56;100.00
18985;BME280;9626;52.552;13.436;2023-02-17T01:13:16;101227.16;;;6.58;100.00
18985;BME280;9626;52.552;13.436;2023-02-17T01:15:48;101233.28;;;6.54;100.00
18985;BME280;9626;52.552;13.436;2023-02-17T01:18:16;101235.91;;;6.57;100.00
18985;BME280;9626;52.552;13.436;2023-02-17T01:20:42;101221.03;;;6.59;100.00
18985;BME280;9626;52.552;13.436;2023-02-17T01:23:09;101216.63;;;6.59;100.00
18985;BME280;9626;52.552;13.436;2023-02-17T01:25:36;101209.59;;;6.58;100.00
18985;BME280;9626;52.552;13.436;2023-02-17T01:28:03;101212.22;;;6.58;100.00
18985;BME280;9626;52.552;13.436;2023-02-17T01:30:29;101204.38;;;6.60;100.00
18985;BME280;9626;52.552;13.436;2023-02-17T01:32:55;101210.50;;;6.60;100.00
18985;BME280;9626;52.552;13.436;2023-02-17T01:35:21;101202.59;;;6.56;100.00
18985;BME280;9626;52.552;13.436;2023-02-17T01:37:47;101194.72;;;6.56;100.00
18985;BME280;9626;52.552;13.436;2023-02-17T01:40:15;101193.81;;;6.58;100.00
18985;BME280;9626;52.552;13.436;2023-02-17T01:42:41;101193.84;;;6.62;100.00
18985;BME280;9626;52.552;13.436;2023-02-17T01:47:51;101191.22;;;6.63;100.00
18985;BME280;9626;52.552;13.436;2023-02-17T01:50:21;101187.72;;;6.67;100.00
18985;BME280;9626;52.552;13.436;2023-02-17T01:52:51;101196.50;;;6.69;100.00
18985;BME280;9626;52.552;13.436;2023-02-17T01:55:32;101187.75;;;6.73;100.00
18985;BME280;9626;52.552;13.436;2023-02-17T01:58:01;101186.88;;;6.70;100.00
18985;BME280;9626;52.552;13.436;2023-02-17T02:00:28;101178.09;;;6.71;100.00
18985;BME280;9626;52.552;13.436;2023-02-17T02:02:56;101178.97;;;6.71;100.00
18985;BME280;9626;52.552;13.436;2023-02-17T02:05:23;101174.56;;;6.67;100.00
18985;BME280;9626;52.552;13.436;2023-02-17T02:07:50;101175.44;;;6.66;100.00
18985;BME280;9626;52.552;13.436;2023-02-17T02:10:17;101171.91;;;6.59;100.00
18985;BME280;9626;52.552;13.436;2023-02-17T02:12:44;101165.72;;;6.51;100.00
18985;BME280;9626;52.552;13.436;2023-02-17T02:15:13;101165.72;;;6.47;100.00
18985;BME280;9626;52.552;13.436;2023-02-17T02:20:36;101150.69;;;6.24;100.00
18985;BME280;9626;52.552;13.436;2023-02-17T02:35:08;101122.41;;;5.90;100.00
18985;BME280;9626;52.552;13.436;2023-02-17T02:37:59;101120.63;;;5.86;100.00
18985;BME280;9626;52.552;13.436;2023-02-17T02:40:32;101115.41;;;5.96;100.00
18985;BME280;9626;52.552;13.436;2023-02-17T02:43:01;101111.91;;;5.92;100.00
18985;BME280;9626;52.552;13.436;2023-02-17T02:45:28;101117.19;;;5.95;100.00
18985;BME280;9626;52.552;13.436;2023-02-17T02:47:55;101114.56;;;5.97;100.00
18985;BME280;9626;52.552;13.436;2023-02-17T02:50:43;101110.16;;;5.91;100.00
18985;BME280;9626;52.552;13.436;2023-02-17T03:02:24;101095.28;;;5.95;100.00
18985;BME280;9626;52.552;13.436;2023-02-17T03:07:30;101085.59;;;5.89;100.00
18985;BME280;9626;52.552;13.436;2023-02-17T03:09:59;101080.31;;;5.86;100.00
18985;BME280;9626;52.552;13.436;2023-02-17T03:12:26;101072.47;;;5.90;100.00
18985;BME280;9626;52.552;13.436;2023-02-17T03:14:58;101075.06;;;5.89;100.00
18985;BME280;9626;52.552;13.436;2023-02-17T03:17:29;101075.97;;;5.96;100.00
18985;BME280;9626;52.552;13.436;2023-02-17T03:19:55;101074.28;;;5.98;100.00
18985;BME280;9626;52.552;13.436;2023-02-17T03:22:25;101068.09;;;5.94;100.00
18985;BME280;9626;52.552;13.436;2023-02-17T03:24:53;101059.34;;;5.90;100.00
18985;BME280;9626;52.552;13.436;2023-02-17T03:27:19;101060.19;;;5.91;100.00
18985;BME280;9626;52.552;13.436;2023-02-17T03:29:45;101076.81;;;5.87;100.00
18985;BME280;9626;52.552;13.436;2023-02-17T03:32:11;101076.84;;;5.93;100.00
18985;BME280;9626;52.552;13.436;2023-02-17T03:34:37;101068.09;;;5.91;100.00
18985;BME280;9626;52.552;13.436;2023-02-17T03:37:03;101082.94;;;5.89;100.00
18985;BME280;9626;52.552;13.436;2023-02-17T03:39:29;101075.97;;;5.92;100.00
18985;BME280;9626;52.552;13.436;2023-02-17T03:41:56;101075.97;;;5.96;100.00
18985;BME280;9626;52.552;13.436;2023-02-17T03:44:40;101073.41;;;5.97;100.00
18985;BME280;9626;52.552;13.436;2023-02-17T03:47:25;101068.19;;;6.00;100.00
18985;BME280;9626;52.552;13.436;2023-02-17T03:50:09;101062.91;;;6.00;100.00
18985;BME280;9626;52.552;13.436;2023-02-17T03:52:54;101060.28;;;6.03;100.00
18985;BME280;9626;52.552;13.436;2023-02-17T03:55:38;101065.56;;;6.02;100.00
18985;BME280;9626;52.552;13.436;2023-02-17T03:58:22;101061.16;;;5.99;100.00
18985;BME280;9626;52.552;13.436;2023-02-17T04:01:08;101053.28;;;6.02;100.00
18985;BME280;9626;52.552;13.436;2023-02-17T04:03:53;101054.19;;;6.04;100.00
18985;BME280;9626;52.552;13.436;2023-02-17T04:06:38;101059.44;;;6.03;100.00
18985;BME280;9626;52.552;13.436;2023-02-17T04:09:22;101050.69;;;6.05;100.00
18985;BME280;9626;52.552;13.436;2023-02-17T04:12:06;101047.16;;;6.06;100.00
18985;BME280;9626;52.552;13.436;2023-02-17T04:14:51;101046.28;;;6.06;100.00
18985;BME280;9626;52.552;13.436;2023-02-17T04:17:36;101039.28;;;6.08;100.00
18985;BME280;9626;52.552;13.436;2023-02-17T04:20:22;101044.56;;;6.11;100.00
18985;BME280;9626;52.552;13.436;2023-02-17T04:23:06;101048.94;;;6.11;100.00
18985;BME280;9626;52.552;13.436;2023-02-17T04:25:51;101036.69;;;6.16;100.00
18985;BME280;9626;52.552;13.436;2023-02-17T04:28:37;101032.31;;;6.16;100.00
18985;BME280;9626;52.552;13.436;2023-02-17T04:31:22;101030.56;;;6.14;100.00
18985;BME280;9626;52.552;13.436;2023-02-17T04:34:08;101026.16;;;6.09;100.00
18985;BME280;9626;52.552;13.436;2023-02-17T04:36:53;101020.91;;;6.16;100.00
18985;BME280;9626;52.552;13.436;2023-02-17T04:39:37;101016.56;;;6.19;100.00
18985;BME280;9626;52.552;13.436;2023-02-17T04:42:21;101023.56;;;6.20;100.00
18985;BME280;9626;52.552;13.436;2023-02-17T04:45:06;101028.84;;;6.23;100.00
18985;BME280;9626;52.552;13.436;2023-02-17T04:47:51;101038.47;;;6.21;100.00
18985;BME280;9626;52.552;13.436;2023-02-17T04:50:35;101029.69;;;6.21;100.00
18985;BME280;9626;52.552;13.436;2023-02-17T04:53:20;101020.09;;;6.28;100.00
18985;BME280;9626;52.552;13.436;2023-02-17T04:56:04;101020.94;;;6.28;100.00
18985;BME280;9626;52.552;13.436;2023-02-17T04:58:49;101011.28;;;6.27;100.00
18985;BME280;9626;52.552;13.436;2023-02-17T05:01:33;101004.31;;;6.32;100.00
18985;BME280;9626;52.552;13.436;2023-02-17T05:04:18;101003.44;;;6.32;100.00
18985;BME280;9626;52.552;13.436;2023-02-17T05:07:02;101010.44;;;6.31;100.00
18985;BME280;9626;52.552;13.436;2023-02-17T05:09:47;101012.19;;;6.35;100.00
18985;BME280;9626;52.552;13.436;2023-02-17T05:12:31;101014.84;;;6.38;100.00
18985;BME280;9626;52.552;13.436;2023-02-17T05:15:16;100999.94;;;6.34;100.00
18985;BME280;9626;52.552;13.436;2023-02-17T05:18:00;100995.56;;;6.33;100.00
18985;BME280;9626;52.552;13.436;2023-02-17T05:20:44;101003.44;;;6.33;100.00
18985;BME280;9626;52.552;13.436;2023-02-17T05:23:29;100999.03;;;6.32;100.00
18985;BME280;9626;52.552;13.436;2023-02-17T05:26:13;100997.31;;;6.33;100.00
18985;BME280;9626;52.552;13.436;2023-02-17T05:28:58;100985.03;;;6.32;100.00
18985;BME280;9626;52.552;13.436;2023-02-17T05:31:42;100999.91;;;6.31;100.00
18985;BME280;9626;52.552;13.436;2023-02-17T05:34:27;100993.78;;;6.34;100.00
18985;BME280;9626;52.552;13.436;2023-02-17T05:37:11;100976.28;;;6.36;100.00
18985;BME280;9626;52.552;13.436;2023-02-17T05:39:55;100983.25;;;6.32;100.00
18985;BME280;9626;52.552;13.436;2023-02-17T05:42:40;100989.41;;;6.37;100.00
18985;BME280;9626;52.552;13.436;2023-02-17T05:45:24;100978.03;;;6.38;100.00
18985;BME280;9626;52.552;13.436;2023-02-17T05:48:08;100978.91;;;6.40;100.00
18985;BME280;9626;52.552;13.436;2023-02-17T05:50:53;100980.66;;;6.38;100.00
18985;BME280;9626;52.552;13.436;2023-02-17T05:53:37;100981.56;;;6.45;100.00
18985;BME280;9626;52.552;13.436;2023-02-17T05:56:22;100984.19;;;6.47;100.00
18985;BME280;9626;52.552;13.436;2023-02-17T05:59:06;100980.66;;;6.41;100.00
18985;BME280;9626;52.552;13.436;2023-02-17T06:01:50;100975.41;;;6.45;100.00
18985;BME280;9626;52.552;13.436;2023-02-17T06:04:35;100969.28;;;6.42;100.00
18985;BME280;9626;52.552;13.436;2023-02-17T06:07:20;100964.88;;;6.38;100.00
18985;BME280;9626;52.552;13.436;2023-02-17T06:10:04;100965.75;;;6.40;100.00
18985;BME280;9626;52.552;13.436;2023-02-17T06:12:49;100957.00;;;6.38;100.00
18985;BME280;9626;52.552;13.436;2023-02-17T06:15:34;100949.97;;;6.40;100.00
18985;BME280;9626;52.552;13.436;2023-02-17T06:18:18;100958.75;;;6.39;100.00
18985;BME280;9626;52.552;13.436;2023-02-17T06:21:02;100942.97;;;6.42;100.00
18985;BME280;9626;52.552;13.436;2023-02-17T06:23:47;100943.84;;;6.41;100.00
18985;BME280;9626;52.552;13.436;2023-02-17T06:26:31;100939.47;;;6.43;100.00
18985;BME280;9626;52.552;13.436;2023-02-17T06:29:15;100936.84;;;6.47;100.00
18985;BME280;9626;52.552;13.436;2023-02-17T06:32:00;100937.69;;;6.50;100.00
18985;BME280;9626;52.552;13.436;2023-02-17T06:34:45;100939.44;;;6.54;100.00
18985;BME280;9626;52.552;13.436;2023-02-17T06:37:29;100940.34;;;6.55;100.00
18985;BME280;9626;52.552;13.436;2023-02-17T06:40:15;100935.06;;;6.61;100.00
18985;BME280;9626;52.552;13.436;2023-02-17T06:42:59;100926.31;;;6.59;100.00
18985;BME280;9626;52.552;13.436;2023-02-17T06:45:44;100929.84;;;6.64;100.00
18985;BME280;9626;52.552;13.436;2023-02-17T06:48:28;100940.34;;;6.69;100.00
18985;BME280;9626;52.552;13.436;2023-02-17T06:51:16;100932.47;;;6.69;100.00
18985;BME280;9626;52.552;13.436;2023-02-17T06:54:00;100932.44;;;6.73;100.00
18985;BME280;9626;52.552;13.436;2023-02-17T06:56:45;100921.03;;;6.74;100.00
18985;BME280;9626;52.552;13.436;2023-02-17T06:59:31;100921.06;;;6.84;100.00
18985;BME280;9626;52.552;13.436;2023-02-17T07:02:16;100915.78;;;6.84;100.00
18985;BME280;9626;52.552;13.436;2023-02-17T07:05:00;100910.53;;;6.84;100.00
18985;BME280;9626;52.552;13.436;2023-02-17T07:07:45;100915.78;;;6.93;100.00
18985;BME280;9626;52.552;13.436;2023-02-17T07:10:30;100905.25;;;6.90;100.00
18985;BME280;9626;52.552;13.436;2023-02-17T07:13:14;100904.34;;;6.92;100.00
18985;BME280;9626;52.552;13.436;2023-02-17T07:15:59;100899.97;;;6.96;100.00
18985;BME280;9626;52.552;13.436;2023-02-17T07:18:45;100899.97;;;6.99;100.00
18985;BME280;9626;52.552;13.436;2023-02-17T07:21:29;100900.84;;;7.04;100.00
18985;BME280;9626;52.552;13.436;2023-02-17T07:24:14;100905.22;;;7.05;100.00
18985;BME280;9626;52.552;13.436;2023-02-17T07:26:58;100899.09;;;7.09;100.00
18985;BME280;9626;52.552;13.436;2023-02-17T07:29:44;100895.59;;;7.09;100.00
18985;BME280;9626;52.552;13.436;2023-02-17T07:32:28;100909.59;;;7.13;100.00
18985;BME280;9626;52.552;13.436;2023-02-17T07:35:12;100900.81;;;7.15;100.00
18985;BME280;9626;52.552;13.436;2023-02-17T07:37:57;100892.91;;;7.20;100.00
18985;BME280;9626;52.552;13.436;2023-02-17T07:40:41;100884.09;;;7.24;100.00
18985;BME280;9626;52.552;13.436;2023-02-17T07:43:26;100883.25;;;7.28;100.00
18985;BME280;9626;52.552;13.436;2023-02-17T07:46:11;100885.00;;;7.32;100.00
18985;BME280;9626;52.552;13.436;2023-02-17T07:48:56;100884.97;;;7.34;100.00
18985;BME280;9626;52.552;13.436;2023-02-17T07:51:41;100870.91;;;7.39;100.00
18985;BME280;9626;52.552;13.436;2023-02-17T07:54:26;100872.66;;;7.43;100.00
18985;BME280;9626;52.552;13.436;2023-02-17T07:57:10;100864.69;;;7.50;100.00
18985;BME280;9626;52.552;13.436;2023-02-17T07:59:55;100877.00;;;7.51;100.00
18985;BME280;9626;52.552;13.436;2023-02-17T08:02:39;100862.94;;;7.55;100.00
18985;BME280;9626;52.552;13.436;2023-02-17T08:05:24;100869.94;;;7.59;100.00
18985;BME280;9626;52.552;13.436;2023-02-17T08:08:08;100862.03;;;7.65;100.00
18985;BME280;9626;52.552;13.436;2023-02-17T08:11:14;100864.59;;;7.76;100.00
18985;BME280;9626;52.552;13.436;2023-02-17T08:14:20;100867.25;;;7.74;100.00
18985;BME280;9626;52.552;13.436;2023-02-17T08:17:05;100862.78;;;7.81;100.00
18985;BME280;9626;52.552;13.436;2023-02-17T08:19:50;100869.84;;;7.79;100.00
18985;BME280;9626;52.552;13.436;2023-02-17T08:22:34;100863.69;;;7.82;100.00
18985;BME280;9626;52.552;13.436;2023-02-17T08:25:19;100865.44;;;7.81;100.00
18985;BME280;9626;52.552;13.436;2023-02-17T08:28:04;100856.66;;;7.82;100.00
18985;BME280;9626;52.552;13.436;2023-02-17T08:30:49;100854.00;;;7.82;100.00
18985;BME280;9626;52.552;13.436;2023-02-17T08:33:33;100854.91;;;7.83;100.00
18985;BME280;9626;52.552;13.436;2023-02-17T08:36:18;100842.56;;;7.85;100.00
18985;BME280;9626;52.552;13.436;2023-02-17T08:39:10;100844.34;;;7.84;100.00
18985;BME280;9626;52.552;13.436;2023-02-17T08:41:55;100840.81;;;7.82;100.00
18985;BME280;9626;52.552;13.436;2023-02-17T08:44:40;100847.88;;;7.82;100.00
18985;BME280;9626;52.552;13.436;2023-02-17T08:47:24;100848.75;;;7.81;100.00
18985;BME280;9626;52.552;13.436;2023-02-17T08:50:13;100854.03;;;7.81;100.00
18985;BME280;9626;52.552;13.436;2023-02-17T08:52:59;100850.50;;;7.83;100.00
18985;BME280;9626;52.552;13.436;2023-02-17T08:55:44;100838.19;;;7.84;100.00
18985;BME280;9626;52.552;13.436;2023-02-17T08:58:28;100832.91;;;7.87;100.00
18985;BME280;9626;52.552;13.436;2023-02-17T09:01:12;100831.16;;;7.86;100.00
18985;BME280;9626;52.552;13.436;2023-02-17T09:03:58;100820.59;;;7.86;100.00
18985;BME280;9626;52.552;13.436;2023-02-17T09:06:46;100810.91;;;7.88;100.00
18985;BME280;9626;52.552;13.436;2023-02-17T09:09:30;100799.50;;;7.86;100.00
18985;BME280;9626;52.552;13.436;2023-02-17T09:12:15;100806.50;;;7.90;100.00
18985;BME280;9626;52.552;13.436;2023-02-17T09:14:59;100781.00;;;7.90;100.00
18985;BME280;9626;52.552;13.436;2023-02-17T09:17:44;100788.91;;;7.90;100.00
18985;BME280;9626;52.552;13.436;2023-02-17T09:20:29;100794.19;;;7.90;100.00
18985;BME280;9626;52.552;13.436;2023-02-17T09:23:13;100783.63;;;7.92;100.00
18985;BME280;9626;52.552;13.436;2023-02-17T09:26:06;100778.34;;;7.92;100.00
18985;BME280;9626;52.552;13.436;2023-02-17T09:28:51;100768.72;;;7.88;100.00
18985;BME280;9626;52.552;13.436;2023-02-17T09:31:36;100772.22;;;7.91;100.00
18985;BME280;9626;52.552;13.436;2023-02-17T09:34:20;100767.00;;;7.87;100.00
18985;BME280;9626;52.552;13.436;2023-02-17T09:37:10;100758.19;;;7.88;100.00
18985;BME280;9626;52.552;13.436;2023-02-17T09:39:55;100761.72;;;7.87;100.00
18985;BME280;9626;52.552;13.436;2023-02-17T09:42:39;100751.19;;;7.87;100.00
18985;BME280;9626;52.552;13.436;2023-02-17T09:45:26;100755.53;;;7.88;100.00
18985;BME280;9626;52.552;13.436;2023-02-17T09:48:19;100758.22;;;7.83;100.00
18985;BME280;9626;52.552;13.436;2023-02-17T09:51:09;100745.03;;;7.85;100.00
18985;BME280;9626;52.552;13.436;2023-02-17T09:54:06;100745.03;;;7.83;100.00
18985;BME280;9626;52.552;13.436;2023-02-17T09:56:54;100730.13;;;7.79;100.00
18985;BME280;9626;52.552;13.436;2023-02-17T10:00:07;100732.81;;;7.76;100.00
18985;BME280;9626;52.552;13.436;2023-02-17T10:03:51;100737.16;;;7.77;100.00
18985;BME280;9626;52.552;13.436;2023-02-17T10:12:08;100723.09;;;7.78;100.00
18985;BME280;9626;52.552;13.436;2023-02-17T10:15:10;100711.69;;;7.77;100.00
18985;BME280;9626;52.552;13.436;2023-02-17T10:18:35;100718.66;;;7.86;100.00
18985;BME280;9626;52.552;13.436;2023-02-17T10:21:26;100718.72;;;7.78;100.00
18985;BME280;9626;52.552;13.436;2023-02-17T10:24:11;100709.03;;;7.79;100.00
18985;BME280;9626;52.552;13.436;2023-02-17T10:38:48;100681.72;;;7.88;100.00
18985;BME280;9626;52.552;13.436;2023-02-17T10:41:35;100677.31;;;7.91;100.00
18985;BME280;9626;52.552;13.436;2023-02-17T10:44:23;100658.78;;;7.96;100.00
18985;BME280;9626;52.552;13.436;2023-02-17T10:47:09;100653.53;;;7.98;100.00
18985;BME280;9626;52.552;13.436;2023-02-17T10:49:54;100653.50;;;8.01;100.00
18985;BME280;9626;52.552;13.436;2023-02-17T10:52:40;100650.81;;;8.04;100.00
18985;BME280;9626;52.552;13.436;2023-02-17T10:55:37;100642.84;;;8.08;100.00
18985;BME280;9626;52.552;13.436;2023-02-17T10:58:30;100635.78;;;8.13;100.00
18985;BME280;9626;52.552;13.436;2023-02-17T11:01:16;100637.47;;;8.18;100.00
18985;BME280;9626;52.552;13.436;2023-02-17T11:04:06;100643.63;;;8.20;100.00
18985;BME280;9626;52.552;13.436;2023-02-17T11:06:52;100611.91;;;8.24;100.00
18985;BME280;9626;52.552;13.436;2023-02-17T11:09:43;100600.47;;;8.27;100.00
18985;BME280;9626;52.552;13.436;2023-02-17T11:12:37;100591.63;;;8.31;100.00
18985;BME280;9626;52.552;13.436;2023-02-17T11:15:25;100586.28;;;8.34;100.00
18985;BME280;9626;52.552;13.436;2023-02-17T11:18:19;100570.47;;;8.36;100.00
18985;BME280;9626;52.552;13.436;2023-02-17T11:21:10;100558.13;;;8.38;100.00
18985;BME280;9626;52.552;13.436;2023-02-17T11:23:58;100549.25;;;8.43;100.00
18985;BME280;9626;52.552;13.436;2023-02-17T11:27:09;100553.63;;;8.48;100.00
18985;BME280;9626;52.552;13.436;2023-02-17T11:30:07;100535.09;;;8.52;100.00
18985;BME280;9626;52.552;13.436;2023-02-17T11:32:52;100534.13;;;8.59;100.00
18985;BME280;9626;52.552;13.436;2023-02-17T11:35:47;100540.25;;;8.60;100.00
18985;BME280;9626;52.552;13.436;2023-02-17T11:41:22;100530.44;;;8.71;100.00
18985;BME280;9626;52.552;13.436;2023-02-17T11:44:07;100508.38;;;8.74;100.00
18985;BME280;9626;52.552;13.436;2023-02-17T11:47:03;100507.41;;;8.81;100.00
18985;BME280;9626;52.552;13.436;2023-02-17T11:49:54;100486.28;;;8.81;100.00
18985;BME280;9626;52.552;13.436;2023-02-17T11:59:01;100457.03;;;8.95;100.00
18985;BME280;9626;52.552;13.436;2023-02-17T12:08:51;100435.69;;;9.07;100.00
18985;BME280;9626;52.552;13.436;2023-02-17T12:11:50;100447.03;;;9.12;100.00
18985;BME280;9626;52.552;13.436;2023-02-17T12:18:02;100417.75;;;9.25;100.00
18985;BME280;9626;52.552;13.436;2023-02-17T12:21:08;100420.28;;;9.33;100.00
18985;BME280;9626;52.552;13.436;2023-02-17T12:24:40;100404.25;;;9.40;100.00
18985;BME280;9626;52.552;13.436;2023-02-17T12:27:16;100387.50;;;9.41;100.00
18985;BME280;9626;52.552;13.436;2023-02-17T12:36:37;100377.91;;;9.79;100.00
18985;BME280;9626;52.552;13.436;2023-02-17T12:39:28;100370.81;;;9.81;100.00
18985;BME280;9626;52.552;13.436;2023-02-17T12:42:28;100375.22;;;9.81;100.00
18985;BME280;9626;52.552;13.436;2023-02-17T12:45:20;100364.38;;;9.93;100.00
18985;BME280;9626;52.552;13.436;2023-02-17T12:48:13;100354.56;;;9.98;100.00
18985;BME280;9626;52.552;13.436;2023-02-17T12:59:52;100355.75;;;10.24;100.00
18985;BME280;9626;52.552;13.436;2023-02-17T13:02:37;100361.94;;;10.23;100.00
18985;BME280;9626;52.552;13.436;2023-02-17T13:05:29;100350.38;;;10.27;100.00
18985;BME280;9626;52.552;13.436;2023-02-17T13:08:21;100362.59;;;10.36;100.00
18985;BME280;9626;52.552;13.436;2023-02-17T13:11:29;100359.72;;;10.44;100.00
18985;BME280;9626;52.552;13.436;2023-02-17T13:14:36;100341.81;;;10.55;100.00
18985;BME280;9626;52.552;13.436;2023-02-17T13:23:04;100330.06;;;10.65;100.00
18985;BME280;9626;52.552;13.436;2023-02-17T13:26:04;100322.97;;;10.68;100.00
18985;BME280;9626;52.552;13.436;2023-02-17T13:28:50;100326.38;;;10.71;100.00
18985;BME280;9626;52.552;13.436;2023-02-17T13:31:48;100314.00;;;10.73;100.00
18985;BME280;9626;52.552;13.436;2023-02-17T13:34:35;100318.16;;;10.82;100.00
18985;BME280;9626;52.552;13.436;2023-02-17T13:43:16;100298.25;;;11.00;100.00
18985;BME280;9626;52.552;13.436;2023-02-17T13:46:03;100294.66;;;11.03;100.00
18985;BME280;9626;52.552;13.436;2023-02-17T13:49:24;100305.03;;;11.10;100.00
18985;BME280;9626;52.552;13.436;2023-02-17T13:52:24;100309.25;;;11.18;100.00
18985;BME280;9626;52.552;13.436;2023-02-17T13:55:17;100310.94;;;11.20;100.00
18985;BME280;9626;52.552;13.436;2023-02-17T13:58:02;100312.84;;;11.15;100.00
18985;BME280;9626;52.552;13.436;2023-02-17T14:00:47;100304.75;;;11.21;100.00
18985;BME280;9626;52.552;13.436;2023-02-17T14:03:45;100306.25;;;11.30;100.00
18985;BME280;9626;52.552;13.436;2023-02-17T14:06:35;100316.69;;;11.36;100.00
18985;BME280;9626;52.552;13.436;2023-02-17T14:09:29;100317.00;;;11.25;100.00
18985;BME280;9626;52.552;13.436;2023-02-17T14:12:20;100307.31;;;11.24;100.00
18985;BME280;9626;52.552;13.436;2023-02-17T14:15:18;100303.94;;;11.18;100.00
18985;BME280;9626;52.552;13.436;2023-02-17T14:18:13;100327.06;;;11.12;100.00
18985;BME280;9626;52.552;13.436;2023-02-17T14:20:59;100328.69;;;11.18;100.00
18985;BME280;9626;52.552;13.436;2023-02-17T14:23:46;100335.59;;;11.24;100.00
18985;BME280;9626;52.552;13.436;2023-02-17T14:26:37;100331.16;;;11.24;100.00
18985;BME280;9626;52.552;13.436;2023-02-17T14:29:22;100318.75;;;11.26;100.00
18985;BME280;9626;52.552;13.436;2023-02-17T14:32:28;100339.00;;;11.29;100.00
18985;BME280;9626;52.552;13.436;2023-02-17T14:38:34;100338.41;;;11.18;100.00
18985;BME280;9626;52.552;13.436;2023-02-17T14:41:20;100334.00;;;11.16;100.00
18985;BME280;9626;52.552;13.436;2023-02-17T14:44:04;100336.69;;;11.15;100.00
18985;BME280;9626;52.552;13.436;2023-02-17T14:46:49;100344.66;;;11.15;100.00
18985;BME280;9626;52.552;13.436;2023-02-17T14:49:33;100344.94;;;11.04;100.00
18985;BME280;9626;52.552;13.436;2023-02-17T14:52:22;100340.97;;;10.88;100.00
18985;BME280;9626;52.552;13.436;2023-02-17T14:55:35;100346.69;;;10.72;100.00
18985;BME280;9626;52.552;13.436;2023-02-17T14:58:23;100338.97;;;10.63;100.00
18985;BME280;9626;52.552;13.436;2023-02-17T15:01:14;100345.47;;;10.49;100.00
18985;BME280;9626;52.552;13.436;2023-02-17T15:03:58;100352.63;;;10.46;100.00
18985;BME280;9626;52.552;13.436;2023-02-17T15:06:47;100346.44;;;10.45;100.00
18985;BME280;9626;52.552;13.436;2023-02-17T15:09:32;100350.84;;;10.46;100.00
18985;BME280;9626;52.552;13.436;2023-02-17T15:12:19;100359.84;;;10.39;100.00
18985;BME280;9626;52.552;13.436;2023-02-17T15:15:04;100358.19;;;10.35;100.00
18985;BME280;9626;52.552;13.436;2023-02-17T15:17:48;100355.47;;;10.38;100.00
18985;BME280;9626;52.552;13.436;2023-02-17T15:20:33;100373.16;;;10.36;100.00
18985;BME280;9626;52.552;13.436;2023-02-17T15:23:20;100357.28;;;10.35;100.00
18985;BME280;9626;52.552;13.436;2023-02-17T15:26:08;100352.00;;;10.33;100.00
18985;BME280;9626;52.552;13.436;2023-02-17T15:28:52;100347.59;;;10.34;100.00
18985;BME280;9626;52.552;13.436;2023-02-17T15:31:39;100359.19;;;10.28;100.00
18985;BME280;9626;52.552;13.436;2023-02-17T15:34:28;100348.75;;;10.22;100.00
18985;BME280;9626;52.552;13.436;2023-02-17T15:37:14;100345.34;;;10.17;100.00
18985;BME280;9626;52.552;13.436;2023-02-17T15:39:58;100354.13;;;10.19;100.00
18985;BME280;9626;52.552;13.436;2023-02-17T15:42:44;100369.06;;;10.20;100.00
18985;BME280;9626;52.552;13.436;2023-02-17T15:45:29;100343.47;;;10.22;100.00
18985;BME280;9626;52.552;13.436;2023-02-17T15:48:23;100339.03;;;10.22;100.00